Time;durP1;ratioP1;P1;durP2;ratioP2;P2;SDS_P1;SDS_P2;PMS_P1;PMS_P2;Temp;Humidity;BMP_temperature;BMP_pressure;BME280_temperature;BME280_humidity;BME280_pressure;Samples;Min_cycle;Max_cycle;Signal;HPM_P1;HPM_P2
2022/09/30 00:01:34;;;;;;;33.53;30.63;;;;;;;18.79;82.13;100511.13;5015207;28;102524;-52
2022/09/30 00:04:00;;;;;;;35.87;32.97;;;;;;;18.79;82.09;100504.78;4998184;28;102329;-53
2022/09/30 00:06:28;;;;;;;32.60;29.90;;;;;;;18.78;82.31;100501.22;4996620;28;103890;-52
2022/09/30 00:08:56;;;;;;;33.22;30.38;;;;;;;18.78;81.96;100495.72;4997546;28;102087;-53
2022/09/30 00:11:27;;;;;;;33.53;30.70;;;;;;;18.78;81.80;100495.72;5001209;28;102276;-52
2022/09/30 00:13:55;;;;;;;34.58;31.50;;;;;;;18.79;81.96;100496.50;5012276;28;102466;-52
2022/09/30 00:16:23;;;;;;;32.75;30.02;;;;;;;18.78;81.93;100492.94;4996431;28;104316;-52
2022/09/30 00:18:49;;;;;;;36.03;33.13;;;;;;;18.78;82.04;100497.66;4997404;28;102251;-52
2022/09/30 00:21:16;;;;;;;30.52;27.92;;;;;;;18.79;82.16;100489.06;4995652;28;102288;-52
2022/09/30 00:23:44;;;;;;;33.78;30.55;;;;;;;18.78;82.24;100490.19;4997957;28;101939;-52
2022/09/30 00:26:15;;;;;;;34.28;31.35;;;;;;;18.79;82.28;100483.56;4996344;28;104338;-53
2022/09/30 00:28:42;;;;;;;33.60;30.48;;;;;;;18.78;82.25;100481.94;5004091;28;102141;-52
2022/09/30 00:31:13;;;;;;;33.15;30.40;;;;;;;18.79;81.91;100494.59;5015833;28;102299;-53
2022/09/30 00:33:39;;;;;;;31.63;28.70;;;;;;;18.79;82.27;100494.59;4998221;28;102546;-52
2022/09/30 00:36:06;;;;;;;34.80;31.77;;;;;;;18.77;82.23;100499.63;4995332;28;104080;-52
2022/09/30 00:38:38;;;;;;;36.92;33.50;;;;;;;18.78;82.11;100517.75;4996495;28;101986;-52
2022/09/30 00:41:04;;;;;;;35.40;32.28;;;;;;;18.79;81.89;100522.16;4996734;28;102050;-52
2022/09/30 00:43:41;;;;;;;35.08;31.95;;;;;;;18.79;82.01;100521.31;4995704;28;102646;-52
2022/09/30 00:46:18;;;;;;;36.53;33.03;;;;;;;18.79;82.34;100524.91;4992869;28;103928;-55
2022/09/30 00:48:49;;;;;;;34.28;31.48;;;;;;;18.80;82.38;100532.03;4990342;28;102238;-52
2022/09/30 00:51:17;;;;;;;37.67;34.42;;;;;;;18.79;82.60;100532.34;4976385;28;102385;-52
2022/09/30 00:53:50;;;;;;;36.13;32.63;;;;;;;18.79;82.21;100530.44;4977945;28;102267;-52
2022/09/30 00:56:25;;;;;;;37.83;34.45;;;;;;;18.79;81.90;100533.19;4976317;28;103907;-53
2022/09/30 00:59:01;;;;;;;36.28;32.83;;;;;;;18.78;82.26;100526.03;4976799;28;102240;-52
2022/09/30 01:01:27;;;;;;;37.88;34.55;;;;;;;18.79;81.97;100527.66;4977627;28;102440;-52
2022/09/30 01:04:00;;;;;;;37.33;34.03;;;;;;;18.79;82.24;100526.84;5013877;28;102242;-51
2022/09/30 01:06:27;;;;;;;38.17;34.55;;;;;;;18.80;82.39;100534.78;5016369;28;103856;-53
2022/09/30 01:08:54;;;;;;;40.00;36.60;;;;;;;18.80;82.60;100540.31;5017020;28;102238;-52
2022/09/30 01:11:20;;;;;;;41.58;38.20;;;;;;;18.80;82.70;100545.03;4996138;28;102150;-53
2022/09/30 01:13:52;;;;;;;39.53;36.20;;;;;;;18.79;82.66;100543.38;4996869;28;102538;-52
2022/09/30 01:16:31;;;;;;;37.70;34.72;;;;;;;18.80;82.85;100539.50;4983131;28;104058;-52
2022/09/30 01:19:15;;;;;;;37.63;34.45;;;;;;;18.79;82.47;100544.22;4982310;28;102118;-52
2022/09/30 01:21:58;;;;;;;37.85;34.47;;;;;;;18.78;82.65;100548.09;4977557;28;102262;-52
2022/09/30 01:24:46;;;;;;;40.83;37.22;;;;;;;18.80;82.70;100550.53;4993252;28;102238;-52
2022/09/30 01:27:29;;;;;;;38.28;35.22;;;;;;;18.79;82.44;100543.38;4995401;28;103443;-52
2022/09/30 01:30:13;;;;;;;39.45;36.20;;;;;;;18.79;82.31;100548.91;4996535;28;102488;-52
2022/09/30 01:33:03;;;;;;;39.35;36.03;;;;;;;18.79;82.64;100549.72;4995656;28;102074;-52
2022/09/30 01:35:42;;;;;;;40.28;36.85;;;;;;;18.80;82.59;100547.78;5013756;28;102992;-52
2022/09/30 01:38:15;;;;;;;40.80;37.05;;;;;;;18.79;82.80;100552.47;5012405;28;103852;-52
2022/09/30 01:40:47;;;;;;;44.28;40.42;;;;;;;18.80;82.95;100553.28;5001715;28;102128;-52
2022/09/30 01:43:26;;;;;;;42.83;39.33;;;;;;;18.78;82.19;100559.13;4999726;28;102271;-53
2022/09/30 01:45:57;;;;;;;41.03;37.50;;;;;;;18.79;82.52;100559.91;4998057;28;102844;-52
2022/09/30 01:48:40;;;;;;;42.30;39.03;;;;;;;18.79;82.62;100555.25;4995923;28;103963;-52
2022/09/30 01:51:09;;;;;;;43.80;40.17;;;;;;;18.78;82.54;100559.13;4999686;28;102500;-52
2022/09/30 01:53:45;;;;;;;40.05;36.75;;;;;;;18.78;82.64;100553.59;4997236;28;102071;-53
2022/09/30 01:56:16;;;;;;;46.05;42.15;;;;;;;18.79;82.46;100554.41;5005987;28;102499;-52
2022/09/30 01:58:50;;;;;;;43.63;39.90;;;;;;;18.78;82.49;100561.88;4999976;28;103936;-53
2022/09/30 02:01:24;;;;;;;43.40;39.50;;;;;;;18.79;82.84;100566.28;5001094;28;102255;-52
2022/09/30 02:03:56;;;;;;;43.22;39.60;;;;;;;18.79;82.49;100563.50;4988908;28;102282;-52
2022/09/30 02:06:25;;;;;;;45.13;41.13;;;;;;;18.79;82.84;100563.50;5004825;28;102209;-52
2022/09/30 02:08:56;;;;;;;45.45;41.83;;;;;;;18.79;82.62;100560.75;4999290;28;103935;-52
2022/09/30 02:11:28;;;;;;;41.47;37.97;;;;;;;18.79;82.44;100577.28;5013377;28;102129;-53
2022/09/30 02:14:01;;;;;;;44.10;40.75;;;;;;;18.79;82.53;100577.28;5010856;28;102309;-52
2022/09/30 02:16:35;;;;;;;45.17;41.10;;;;;;;18.79;82.74;100571.78;4992706;28;102181;-52
2022/09/30 02:19:14;;;;;;;41.10;37.33;;;;;;;18.80;83.09;100584.41;5014652;28;103989;-53
2022/09/30 02:21:43;;;;;;;39.47;36.20;;;;;;;18.79;82.73;100582.81;5015793;28;102257;-52
2022/09/30 02:24:15;;;;;;;44.35;40.50;;;;;;;18.80;83.05;100583.63;5006498;28;102251;-53
2022/09/30 02:26:46;;;;;;;40.78;37.30;;;;;;;18.79;82.74;100585.56;4995514;28;102484;-52
2022/09/30 02:29:17;;;;;;;41.03;37.78;;;;;;;18.80;82.41;100589.13;4977620;28;103923;-52
2022/09/30 02:31:48;;;;;;;38.92;35.85;;;;;;;18.79;82.35;100591.09;5014728;28;102170;-52
2022/09/30 02:34:21;;;;;;;38.20;35.15;;;;;;;18.79;82.45;100598.53;5010469;28;102369;-53
2022/09/30 02:36:54;;;;;;;39.55;36.53;;;;;;;18.79;82.25;100602.09;5004627;28;102089;-53
2022/09/30 02:39:28;;;;;;;41.40;37.83;;;;;;;18.80;82.26;100608.44;5002761;28;103941;-52
2022/09/30 02:42:02;;;;;;;37.28;34.35;;;;;;;18.78;82.40;100614.25;4998518;28;102296;-53
2022/09/30 02:44:30;;;;;;;38.97;35.92;;;;;;;18.79;82.21;100615.06;4996292;28;102615;-54
2022/09/30 02:47:07;;;;;;;42.55;39.03;;;;;;;18.80;82.30;100624.97;4975829;28;102615;-53
2022/09/30 02:49:44;;;;;;;40.95;37.50;;;;;;;18.79;82.42;100621.41;4997929;28;103946;-52
2022/09/30 02:52:20;;;;;;;39.42;36.15;;;;;;;18.79;82.13;100615.91;4994438;28;102026;-53
2022/09/30 02:55:01;;;;;;;39.90;36.55;;;;;;;18.78;81.95;100617.00;4994335;28;102266;-52
2022/09/30 02:57:36;;;;;;;40.45;37.47;;;;;;;18.79;82.34;100626.09;4977932;28;102107;-52
2022/09/30 03:00:04;;;;;;;38.22;35.40;;;;;;;18.79;82.73;100618.66;4974163;28;108408;-52
2022/09/30 03:02:31;;;;;;;;;;;;;;;18.78;82.23;100614.25;4988030;28;104827;-52
2022/09/30 03:04:59;;;;;;;38.47;35.38;;;;;;;18.77;82.14;100607.13;5014447;28;101998;-53
2022/09/30 03:07:26;;;;;;;40.00;37.00;;;;;;;18.78;82.47;100614.25;5002704;28;102123;-52
2022/09/30 03:09:55;;;;;;;43.55;39.53;;;;;;;18.78;82.51;100611.50;4988814;28;103838;-52
2022/09/30 03:12:39;;;;;;;44.35;40.92;;;;;;;18.79;82.41;100610.38;4977533;28;102211;-53
2022/09/30 03:15:29;;;;;;;40.22;36.92;;;;;;;18.79;82.19;100610.38;5012118;28;102388;-52
2022/09/30 03:18:40;;;;;;;41.90;38.42;;;;;;;18.79;82.28;100610.38;4990162;28;102651;-52
2022/09/30 03:21:25;;;;;;;40.60;37.40;;;;;;;18.79;82.56;100610.38;4983385;28;104183;-53
2022/09/30 03:24:28;;;;;;;42.67;39.50;;;;;;;18.79;82.39;100618.66;4989281;28;102548;-52
2022/09/30 03:27:07;;;;;;;42.90;39.47;;;;;;;18.79;82.61;100618.66;5011280;28;102164;-52
2022/09/30 03:29:45;;;;;;;44.17;40.42;;;;;;;18.79;82.65;100618.66;4991317;28;102750;-52
2022/09/30 03:32:25;;;;;;;44.30;40.75;;;;;;;18.79;82.55;100615.91;4983248;28;103911;-52
2022/09/30 03:35:03;;;;;;;42.55;39.28;;;;;;;18.79;82.17;100615.91;4989476;28;101959;-53
2022/09/30 03:37:44;;;;;;;46.00;42.45;;;;;;;18.78;82.25;100614.25;4974555;28;102461;-52
2022/09/30 03:40:21;;;;;;;44.53;41.17;;;;;;;18.78;82.14;100614.25;5001007;28;102392;-53
2022/09/30 03:42:54;;;;;;;43.42;40.05;;;;;;;18.78;82.11;100614.25;4989937;28;104028;-52
2022/09/30 03:45:29;;;;;;;44.38;41.08;;;;;;;18.78;82.42;100608.75;4987303;28;102080;-52
2022/09/30 03:48:00;;;;;;;43.70;40.30;;;;;;;18.78;82.27;100625.28;5009340;28;102389;-53
2022/09/30 03:50:30;;;;;;;42.70;39.60;;;;;;;18.79;82.12;100620.56;4980953;28;102199;-52
2022/09/30 03:52:58;;;;;;;42.22;38.88;;;;;;;18.78;82.24;100619.78;5013859;28;103996;-52
2022/09/30 03:55:25;;;;;;;43.80;40.38;;;;;;;18.79;82.43;100628.84;5015954;28;102440;-52
2022/09/30 03:57:53;;;;;;;44.08;40.42;;;;;;;18.78;82.12;100628.03;5006542;28;102195;-52
2022/09/30 04:00:20;;;;;;;45.03;41.95;;;;;;;18.79;82.02;100631.59;4998384;28;102272;-51
2022/09/30 04:02:47;;;;;;;43.10;39.63;;;;;;;18.79;82.09;100635.19;5006222;28;103905;-51
2022/09/30 04:05:14;;;;;;;41.20;38.15;;;;;;;18.79;82.14;100637.13;5014995;28;102321;-52
2022/09/30 04:07:42;;;;;;;41.28;38.30;;;;;;;18.79;82.12;100643.47;5007220;28;102459;-52
2022/09/30 04:10:10;;;;;;;42.58;39.45;;;;;;;18.79;82.23;100640.72;4998332;28;102186;-52
2022/09/30 04:12:38;;;;;;;41.22;38.33;;;;;;;18.79;82.46;100648.13;4995809;28;104094;-52
2022/09/30 04:15:06;;;;;;;47.53;43.72;;;;;;;18.79;82.25;100653.66;4999967;28;102205;-52
2022/09/30 04:17:34;;;;;;;48.05;44.45;;;;;;;18.79;82.07;100643.47;4994691;28;102104;-53
2022/09/30 04:20:01;;;;;;;40.42;37.50;;;;;;;18.79;82.19;100648.97;5010262;28;104710;-53
2022/09/30 04:22:28;;;;;;;40.58;37.65;;;;;;;18.78;82.26;100641.81;5012251;28;103739;-52
2022/09/30 04:24:55;;;;;;;42.63;39.53;;;;;;;18.79;81.76;100645.38;4997902;28;102219;-53
2022/09/30 04:27:23;;;;;;;41.42;38.35;;;;;;;18.78;81.76;100655.59;4998494;28;102054;-52
2022/09/30 04:29:49;;;;;;;36.22;33.60;;;;;;;18.79;81.63;100653.66;4977930;28;102303;-52
2022/09/30 04:32:20;;;;;;;36.70;33.72;;;;;;;18.79;81.43;100660.00;4981933;28;103856;-52
2022/09/30 04:34:47;;;;;;;41.10;38.10;;;;;;;18.79;81.86;100660.00;5007529;28;102274;-52
2022/09/30 04:37:14;;;;;;;40.58;37.50;;;;;;;18.78;81.69;100669.41;4999174;28;102235;-53
2022/09/30 04:39:40;;;;;;;37.45;34.75;;;;;;;18.79;81.27;100661.94;4997224;28;102503;-52
2022/09/30 04:42:07;;;;;;;40.85;38.10;;;;;;;18.78;81.47;100655.59;5007245;28;103894;-52
2022/09/30 04:44:35;;;;;;;37.67;34.92;;;;;;;18.79;81.47;100653.66;5002200;28;102385;-52
2022/09/30 04:47:01;;;;;;;39.05;35.78;;;;;;;18.79;81.41;100665.53;4978797;28;102565;-52
2022/09/30 04:49:28;;;;;;;37.72;34.72;;;;;;;18.78;81.36;100663.88;5000955;28;102461;-52
2022/09/30 04:51:54;;;;;;;38.05;35.05;;;;;;;18.78;81.55;100658.38;5005876;28;103915;-52
2022/09/30 04:54:22;;;;;;;37.78;34.78;;;;;;;18.79;81.65;100665.53;5006410;28;102345;-53
2022/09/30 04:56:48;;;;;;;39.35;36.58;;;;;;;18.78;81.80;100674.91;4995975;28;102043;-52
2022/09/30 04:59:14;;;;;;;40.53;37.50;;;;;;;18.79;81.46;100673.78;4999595;28;102314;-52
2022/09/30 05:01:43;;;;;;;40.80;37.47;;;;;;;18.80;81.60;100674.59;5003281;28;103754;-52
2022/09/30 05:04:11;;;;;;;39.80;36.90;;;;;;;18.80;81.86;100671.84;4995971;28;102355;-52
2022/09/30 05:06:40;;;;;;;39.75;36.95;;;;;;;18.79;81.96;100671.03;4994879;28;102575;-52
2022/09/30 05:09:07;;;;;;;41.80;38.90;;;;;;;18.79;81.66;100673.78;4996953;28;102114;-53
2022/09/30 05:11:33;;;;;;;40.00;37.17;;;;;;;18.80;81.41;100675.41;5005998;28;103941;-52
2022/09/30 05:14:00;;;;;;;35.08;32.53;;;;;;;18.80;81.20;100678.16;4995747;28;102380;-53
2022/09/30 05:16:27;;;;;;;36.17;33.58;;;;;;;18.82;80.94;100684.13;4994833;28;101984;-53
2022/09/30 05:18:55;;;;;;;36.58;34.00;;;;;;;18.85;81.04;100696.47;4998562;28;102382;-53
2022/09/30 05:21:21;;;;;;;36.73;34.27;;;;;;;18.85;80.56;100694.50;4994904;28;104136;-52
2022/09/30 05:23:48;;;;;;;35.90;33.38;;;;;;;18.88;80.56;100702.13;5005220;28;102280;-53
2022/09/30 05:26:14;;;;;;;36.28;33.78;;;;;;;18.89;80.58;100712.03;4995869;28;102426;-52
2022/09/30 05:28:41;;;;;;;33.90;31.60;;;;;;;18.89;80.55;100714.78;5002765;28;102717;-52
2022/09/30 05:31:11;;;;;;;35.23;32.63;;;;;;;18.89;80.40;100712.03;5007946;28;103885;-53
2022/09/30 05:33:37;;;;;;;35.63;33.07;;;;;;;18.89;80.14;100714.78;4996009;28;102462;-52
2022/09/30 05:36:07;;;;;;;33.58;31.05;;;;;;;18.88;80.52;100702.13;4998427;28;102207;-53
2022/09/30 05:38:35;;;;;;;31.52;29.30;;;;;;;18.89;80.19;100698.22;4998296;28;102336;-52
2022/09/30 05:41:06;;;;;;;31.90;29.40;;;;;;;18.88;80.06;100699.38;4995474;28;104812;-52
2022/09/30 05:43:33;;;;;;;32.33;30.13;;;;;;;18.88;80.47;100707.66;5003657;28;102554;-52
2022/09/30 05:45:59;;;;;;;30.98;28.67;;;;;;;18.89;80.26;100700.19;4997197;28;102248;-52
2022/09/30 05:48:26;;;;;;;28.98;26.75;;;;;;;18.89;80.33;100708.47;5006557;28;102132;-52
2022/09/30 05:50:54;;;;;;;28.70;26.80;;;;;;;18.90;80.04;100704.59;4992204;28;104004;-53
2022/09/30 05:53:22;;;;;;;31.52;29.30;;;;;;;18.89;80.21;100701.00;4994563;28;103537;-52
2022/09/30 05:55:50;;;;;;;29.85;27.65;;;;;;;18.89;80.46;100706.50;4992489;28;102189;-53
2022/09/30 05:58:17;;;;;;;32.40;30.02;;;;;;;18.91;80.45;100718.03;4996699;28;102162;-52
2022/09/30 06:00:45;;;;;;;31.38;28.98;;;;;;;18.91;79.91;100717.22;4995285;28;103937;-52
2022/09/30 06:03:17;;;;;;;31.67;29.23;;;;;;;18.91;80.25;100723.53;4994726;28;102471;-52
2022/09/30 06:05:45;;;;;;;31.55;29.25;;;;;;;18.92;80.32;100727.91;4995769;28;102039;-53
2022/09/30 06:08:13;;;;;;;32.35;29.98;;;;;;;18.92;80.11;100732.63;4996951;28;102170;-52
2022/09/30 06:10:45;;;;;;;28.55;26.55;;;;;;;18.93;79.99;100731.47;4993895;28;103871;-52
2022/09/30 06:13:13;;;;;;;31.80;29.50;;;;;;;18.94;79.60;100725.66;4995569;28;102421;-53
2022/09/30 06:15:40;;;;;;;30.33;27.92;;;;;;;18.95;80.18;100727.28;4994925;28;102280;-51
2022/09/30 06:18:07;;;;;;;29.67;27.50;;;;;;;18.95;79.91;100730.03;4996332;28;102583;-51
2022/09/30 06:20:35;;;;;;;30.70;28.58;;;;;;;18.95;79.84;100735.53;4992793;28;104095;-51
2022/09/30 06:23:02;;;;;;;29.30;27.15;;;;;;;18.96;79.52;100731.63;4996095;28;102390;-52
2022/09/30 06:25:30;;;;;;;30.92;28.83;;;;;;;18.96;79.68;100737.16;4989051;28;102502;-53
2022/09/30 06:27:58;;;;;;;31.83;29.63;;;;;;;19.00;79.38;100742.03;5002555;28;102251;-52
2022/09/30 06:30:24;;;;;;;29.70;27.43;;;;;;;19.00;79.30;100747.53;4995169;28;103949;-53
2022/09/30 06:32:55;;;;;;;27.85;25.95;;;;;;;19.02;79.46;100750.78;5005302;28;102143;-53
2022/09/30 06:35:23;;;;;;;31.17;28.97;;;;;;;19.02;79.28;100746.09;5006015;28;102318;-53
2022/09/30 06:37:50;;;;;;;29.85;27.75;;;;;;;19.05;79.28;100744.63;5010095;28;102165;-53
2022/09/30 06:40:17;;;;;;;29.63;27.63;;;;;;;19.05;79.29;100745.44;5000671;28;103771;-52
2022/09/30 06:42:43;;;;;;;29.73;27.80;;;;;;;19.08;79.04;100749.50;4996226;28;102233;-52
2022/09/30 06:45:11;;;;;;;30.20;28.20;;;;;;;19.10;78.88;100758.22;4995720;28;102430;-53
2022/09/30 06:47:40;;;;;;;28.90;27.00;;;;;;;19.11;79.13;100755.16;4979101;28;102552;-52
2022/09/30 06:50:08;;;;;;;27.60;25.73;;;;;;;19.12;78.79;100762.28;4992312;28;104034;-52
2022/09/30 06:52:36;;;;;;;29.08;27.02;;;;;;;19.13;78.91;100757.56;4995000;28;102452;-52
2022/09/30 06:55:02;;;;;;;28.73;26.73;;;;;;;19.14;78.87;100759.19;5001402;28;104718;-52
2022/09/30 06:57:29;;;;;;;28.88;26.73;;;;;;;19.15;79.15;100755.31;5006210;28;102327;-53
2022/09/30 06:59:55;;;;;;;29.65;27.75;;;;;;;19.15;79.06;100755.31;5013548;28;103985;-52
2022/09/30 07:02:24;;;;;;;28.98;27.08;;;;;;;19.17;78.75;100758.53;5006261;28;102493;-53
2022/09/30 07:04:52;;;;;;;29.98;28.00;;;;;;;19.18;78.86;100757.38;5001768;28;101992;-52
2022/09/30 07:07:20;;;;;;;29.52;27.70;;;;;;;19.17;78.96;100764.84;5006908;28;102194;-52
2022/09/30 07:09:47;;;;;;;29.15;27.17;;;;;;;19.19;78.88;100765.34;4998192;28;103821;-52
2022/09/30 07:12:13;;;;;;;29.35;27.33;;;;;;;19.21;79.21;100762.25;4995882;28;102404;-53
2022/09/30 07:14:40;;;;;;;29.92;27.95;;;;;;;19.22;79.26;100766.63;4993563;28;104658;-52
2022/09/30 07:17:06;;;;;;;28.52;26.65;;;;;;;19.23;79.00;100768.28;4995162;28;102274;-53
2022/09/30 07:19:35;;;;;;;29.35;27.35;;;;;;;19.25;78.92;100771.50;4991987;28;103935;-52
2022/09/30 07:24:46;;;;;;;28.27;26.48;;;;;;;19.26;78.82;100773.13;4997282;28;102382;-52
2022/09/30 07:27:13;;;;;;;28.55;26.65;;;;;;;19.27;78.75;100769.22;4998558;28;102187;-53
2022/09/30 07:29:40;;;;;;;27.40;25.63;;;;;;;19.29;78.91;100777.16;4996101;28;103909;-53
2022/09/30 07:32:07;;;;;;;24.77;23.23;;;;;;;19.28;78.95;100773.59;4997233;28;102132;-53
2022/09/30 07:34:38;;;;;;;25.80;23.90;;;;;;;19.31;78.70;100775.72;4997815;28;102234;-52
2022/09/30 07:37:05;;;;;;;25.52;23.88;;;;;;;19.29;78.82;100780.72;4978757;28;102445;-53
2022/09/30 07:39:32;;;;;;;26.08;24.42;;;;;;;19.31;78.63;100786.75;4977662;28;104070;-53
2022/09/30 07:42:00;;;;;;;26.35;24.75;;;;;;;19.31;78.59;100783.97;4994185;28;101991;-55
2022/09/30 07:44:28;;;;;;;25.83;24.23;;;;;;;19.33;78.37;100790.00;4996625;28;102306;-53
2022/09/30 07:46:54;;;;;;;27.55;25.85;;;;;;;19.34;78.54;100793.56;4986383;28;102302;-52
2022/09/30 07:49:24;;;;;;;24.58;22.98;;;;;;;19.35;78.46;100803.44;4992760;28;103941;-53
2022/09/30 07:51:54;;;;;;;25.83;24.05;;;;;;;19.36;78.32;100799.53;4997563;28;102328;-52
2022/09/30 07:54:24;;;;;;;25.98;24.23;;;;;;;19.36;78.33;100803.13;4997291;28;102414;-52
2022/09/30 07:56:51;;;;;;;25.40;23.80;;;;;;;19.37;78.21;100806.72;4998753;28;102038;-52
2022/09/30 07:59:18;;;;;;;25.20;23.60;;;;;;;19.37;77.90;100807.50;4996746;28;104085;-52
2022/09/30 08:01:48;;;;;;;26.23;24.63;;;;;;;19.38;78.36;100803.59;4995638;28;103128;-53
2022/09/30 08:04:15;;;;;;;24.73;23.02;;;;;;;19.38;78.38;100800.84;4997814;28;102233;-52
2022/09/30 08:06:45;;;;;;;25.67;24.08;;;;;;;19.39;78.13;100799.69;4998505;28;102698;-53
2022/09/30 08:09:14;;;;;;;26.98;25.27;;;;;;;19.41;77.99;100799.38;4996649;28;104301;-52
2022/09/30 08:11:43;;;;;;;24.33;22.75;;;;;;;19.42;78.11;100801.81;4997342;28;102307;-53
2022/09/30 08:14:13;;;;;;;23.95;22.48;;;;;;;19.43;77.90;100805.38;4996656;28;102161;-51
2022/09/30 08:16:42;;;;;;;22.58;21.13;;;;;;;19.43;78.04;100808.94;4997606;28;102067;-53
2022/09/30 08:19:14;;;;;;;27.17;25.45;;;;;;;19.45;78.06;100798.41;4996787;28;104143;-52
2022/09/30 08:21:41;;;;;;;24.27;22.77;;;;;;;19.46;77.98;100815.75;4997679;28;102249;-52
2022/09/30 08:24:08;;;;;;;24.85;23.30;;;;;;;19.48;77.81;100815.44;4996671;28;101978;-53
2022/09/30 08:26:36;;;;;;;22.90;21.30;;;;;;;19.48;77.95;100829.25;4998279;28;102835;-53
2022/09/30 08:29:03;;;;;;;25.75;24.13;;;;;;;19.48;78.00;100826.50;4995565;28;103899;-52
2022/09/30 08:31:32;;;;;;;25.17;23.55;;;;;;;19.48;78.03;100830.06;4996630;28;102900;-53
2022/09/30 08:33:59;;;;;;;25.00;23.45;;;;;;;19.49;77.79;100833.63;4995668;28;104753;-56
2022/09/30 08:36:26;;;;;;;26.85;25.20;;;;;;;19.50;77.46;100830.53;4998136;28;102397;-52
2022/09/30 08:38:53;;;;;;;25.25;23.60;;;;;;;19.50;77.60;100833.28;4996340;28;103883;-52
2022/09/30 08:41:36;;;;;;;23.17;21.73;;;;;;;19.50;77.82;100838.00;4997140;28;102197;-52
2022/09/30 08:44:17;;;;;;;23.52;22.02;;;;;;;19.52;77.42;100841.25;4996322;28;102172;-52
2022/09/30 08:46:48;;;;;;;23.83;22.30;;;;;;;19.52;77.22;100844.00;4997460;28;102165;-53
2022/09/30 08:49:31;;;;;;;23.60;22.20;;;;;;;19.52;77.59;100841.25;4996483;28;103924;-53
2022/09/30 08:52:00;;;;;;;24.23;22.63;;;;;;;19.53;77.42;100842.88;4996475;28;102332;-52
2022/09/30 08:54:32;;;;;;;22.48;21.10;;;;;;;19.51;77.37;100840.44;4995397;28;102258;-53
2022/09/30 08:57:01;;;;;;;22.83;21.33;;;;;;;19.54;77.29;100844.47;4997446;28;102569;-53
2022/09/30 08:59:34;;;;;;;20.55;19.30;;;;;;;19.53;77.28;100837.34;4995424;28;103998;-52
2022/09/30 09:02:13;;;;;;;23.23;21.73;;;;;;;19.54;77.43;100850.81;4991368;28;101930;-52
2022/09/30 09:04:40;;;;;;;23.75;22.25;;;;;;;19.52;77.18;100842.06;4976851;28;102401;-52
2022/09/30 09:07:15;;;;;;;22.90;21.45;;;;;;;19.53;77.47;100843.66;4977406;28;102153;-52
2022/09/30 09:09:56;;;;;;;22.38;21.05;;;;;;;19.53;77.56;100849.19;4993419;28;109195;-52
2022/09/30 09:12:35;;;;;;;23.45;21.77;;;;;;;19.54;77.03;100852.75;4996540;28;102343;-53
2022/09/30 09:15:21;;;;;;;22.42;21.05;;;;;;;19.53;77.21;100857.47;4995480;28;102234;-53
2022/09/30 09:18:09;;;;;;;22.52;21.13;;;;;;;19.54;77.45;100855.50;4996476;28;102032;-53
2022/09/30 09:20:41;;;;;;;23.17;21.75;;;;;;;19.54;77.17;100866.56;4963703;28;103847;-53
2022/09/30 09:23:11;;;;;;;21.85;20.55;;;;;;;19.54;77.18;100866.56;4993757;28;102382;-53
2022/09/30 09:25:39;;;;;;;21.35;20.05;;;;;;;19.54;77.41;100866.56;4995419;28;102422;-53
2022/09/30 09:28:21;;;;;;;22.50;21.15;;;;;;;19.54;77.24;100861.03;4997096;28;102550;-53
2022/09/30 09:30:56;;;;;;;22.92;21.52;;;;;;;19.54;77.34;100870.13;4995934;28;104162;-53
2022/09/30 09:33:28;;;;;;;20.80;19.48;;;;;;;19.55;77.14;100868.19;4995829;28;102408;-53
2022/09/30 09:36:04;;;;;;;20.50;19.33;;;;;;;19.55;77.22;100868.19;4996184;28;102357;-54
2022/09/30 09:38:39;;;;;;;22.00;20.75;;;;;;;19.53;77.37;100864.94;4990403;28;102374;-53
2022/09/30 09:41:20;;;;;;;20.63;19.42;;;;;;;19.53;77.29;100871.28;4995135;28;108102;-52
2022/09/30 09:43:59;;;;;;;23.80;22.40;;;;;;;19.54;77.23;100872.88;4994211;28;102035;-53
2022/09/30 09:46:32;;;;;;;21.58;20.25;;;;;;;19.53;77.40;100876.00;4995085;28;102421;-53
2022/09/30 09:49:30;;;;;;;21.02;19.80;;;;;;;19.53;77.24;100870.47;4995727;28;102064;-53
2022/09/30 09:52:29;;;;;;;21.63;20.27;;;;;;;19.53;77.29;100870.47;4994862;28;104108;-53
2022/09/30 09:54:57;;;;;;;23.58;22.17;;;;;;;19.52;77.38;100866.09;4995256;28;102172;-53
2022/09/30 09:57:26;;;;;;;22.05;20.75;;;;;;;19.51;77.30;100872.72;4994991;28;101942;-53
2022/09/30 09:59:58;;;;;;;20.58;19.38;;;;;;;19.52;77.24;100871.63;4996526;28;102136;-53
2022/09/30 10:02:28;;;;;;;23.20;21.73;;;;;;;19.51;77.36;100867.22;4995274;28;103993;-53
2022/09/30 10:05:02;;;;;;;21.20;20.00;;;;;;;19.51;77.29;100870.81;4996248;28;102054;-53
2022/09/30 10:07:32;;;;;;;21.55;20.23;;;;;;;19.51;77.45;100864.44;4995647;28;102192;-53
2022/09/30 10:10:16;;;;;;;22.27;21.00;;;;;;;19.50;77.21;100862.84;4996003;28;102235;-53
2022/09/30 10:12:44;;;;;;;23.42;22.05;;;;;;;19.49;77.15;100864.78;4988198;28;107940;-53
2022/09/30 10:15:21;;;;;;;22.50;21.10;;;;;;;19.49;77.28;100869.50;4995831;28;102051;-53
2022/09/30 10:17:59;;;;;;;23.20;21.80;;;;;;;19.49;77.26;100863.97;4994874;28;102303;-53
2022/09/30 10:20:30;;;;;;;23.40;22.00;;;;;;;19.48;77.50;100868.69;4996715;28;102159;-53
2022/09/30 10:23:04;;;;;;;24.80;23.40;;;;;;;19.47;77.35;100860.72;4994633;28;103965;-53
2022/09/30 10:25:31;;;;;;;22.33;21.05;;;;;;;19.48;77.29;100862.38;4995988;28;102116;-54
2022/09/30 10:27:59;;;;;;;26.00;24.60;;;;;;;19.46;77.35;100862.69;4995930;28;102606;-53
2022/09/30 10:30:44;;;;;;;24.17;22.80;;;;;;;19.47;77.29;100863.50;5003574;28;102281;-53
2022/09/30 10:33:20;;;;;;;21.95;20.50;;;;;;;19.45;77.45;100864.63;4994596;28;104262;-53
2022/09/30 10:35:53;;;;;;;22.70;21.45;;;;;;;19.44;77.44;100868.53;4992618;28;102219;-53
2022/09/30 10:38:21;;;;;;;21.75;20.50;;;;;;;19.44;77.17;100868.53;5003876;28;102603;-53
2022/09/30 10:40:49;;;;;;;20.95;19.65;;;;;;;19.43;77.25;100868.84;5006344;28;102430;-53
2022/09/30 10:43:21;;;;;;;21.50;20.30;;;;;;;19.43;77.47;100877.94;5013597;28;103822;-53
2022/09/30 10:45:50;;;;;;;21.35;20.15;;;;;;;19.42;77.18;100887.38;5004036;28;102208;-53
2022/09/30 10:48:22;;;;;;;23.05;21.70;;;;;;;19.42;77.27;100881.84;4998286;28;102255;-53
2022/09/30 10:50:50;;;;;;;21.48;20.15;;;;;;;19.42;76.96;100887.38;5001590;28;102255;-53
2022/09/30 10:53:22;;;;;;;21.88;20.65;;;;;;;19.41;77.18;100880.22;4993371;28;104128;-53
2022/09/30 10:55:48;;;;;;;21.67;20.48;;;;;;;19.41;77.07;100884.94;4994514;28;102257;-54
2022/09/30 10:58:36;;;;;;;25.33;23.73;;;;;;;19.40;77.35;100878.63;4991080;28;102206;-53
2022/09/30 11:01:14;;;;;;;22.58;21.35;;;;;;;19.39;77.37;100876.97;4997276;28;102307;-52
2022/09/30 11:03:52;;;;;;;22.30;21.08;;;;;;;19.39;77.11;100881.69;4997571;28;103863;-53
2022/09/30 11:06:23;;;;;;;24.65;23.25;;;;;;;19.39;77.14;100888.00;5011718;28;102019;-53
2022/09/30 11:08:55;;;;;;;22.08;20.83;;;;;;;19.38;77.28;100889.16;5002478;28;102367;-53
2022/09/30 11:11:29;;;;;;;22.85;21.55;;;;;;;19.37;77.04;100895.81;4999375;28;102131;-53
2022/09/30 11:14:10;;;;;;;21.55;20.35;;;;;;;19.38;77.18;100891.09;4996739;28;104598;-53
2022/09/30 11:16:48;;;;;;;21.48;20.30;;;;;;;19.36;77.30;100894.19;4992744;28;102304;-53
2022/09/30 11:19:21;;;;;;;;;;;;;;;19.36;77.08;100888.66;5000922;28;102171;-53
2022/09/30 11:21:55;;;;;;;19.00;17.98;;;;;;;19.37;76.99;100895.00;5015078;28;102243;-53
2022/09/30 11:24:28;;;;;;;21.45;20.25;;;;;;;19.36;77.04;100893.38;4989301;28;104311;-53